sensor_id;sensor_type;location;lat;lon;timestamp;pressure;altitude;pressure_sealevel;temperature;humidity
80308;BME280;69616;43.522;1.348;2023-09-30T00:00:55;100738.19;;;22.18;59.43
80308;BME280;69616;43.522;1.348;2023-09-30T00:03:20;100746.59;;;22.10;59.28
80308;BME280;69616;43.522;1.348;2023-09-30T00:05:46;100746.91;;;22.02;59.71
80308;BME280;69616;43.522;1.348;2023-09-30T00:08:11;100744.53;;;21.96;60.22
80308;BME280;69616;43.522;1.348;2023-09-30T00:10:36;100750.88;;;21.93;59.88
80308;BME280;69616;43.522;1.348;2023-09-30T00:13:02;100748.16;;;21.95;59.90
80308;BME280;69616;43.522;1.348;2023-09-30T00:15:28;100755.09;;;21.99;59.67
80308;BME280;69616;43.522;1.348;2023-09-30T00:17:53;100754.41;;;21.96;60.01
80308;BME280;69616;43.522;1.348;2023-09-30T00:20:19;100759.16;;;21.89;60.04
80308;BME280;69616;43.522;1.348;2023-09-30T00:22:44;100754.72;;;21.88;60.13
80308;BME280;69616;43.522;1.348;2023-09-30T00:25:09;100761.97;;;21.86;60.13
80308;BME280;69616;43.522;1.348;2023-09-30T00:27:36;100755.72;;;21.85;60.23
80308;BME280;69616;43.522;1.348;2023-09-30T00:30:01;100759.28;;;21.86;60.14
80308;BME280;69616;43.522;1.348;2023-09-30T00:32:28;100753.03;;;21.85;60.22
80308;BME280;69616;43.522;1.348;2023-09-30T00:34:53;100749.38;;;21.88;60.12
80308;BME280;69616;43.522;1.348;2023-09-30T00:37:19;100752.03;;;21.88;60.36
80308;BME280;69616;43.522;1.348;2023-09-30T00:39:45;100754.63;;;21.89;59.92
80308;BME280;69616;43.522;1.348;2023-09-30T00:42:10;100754.63;;;21.89;59.97
80308;BME280;69616;43.522;1.348;2023-09-30T00:44:36;100752.09;;;21.86;60.08
80308;BME280;69616;43.522;1.348;2023-09-30T00:47:01;100750.75;;;21.76;60.47
80308;BME280;69616;43.522;1.348;2023-09-30T00:49:28;100752.84;;;21.69;60.56
80308;BME280;69616;43.522;1.348;2023-09-30T00:51:55;100752.19;;;21.62;60.75
80308;BME280;69616;43.522;1.348;2023-09-30T00:54:21;100750.56;;;21.58;60.83
80308;BME280;69616;43.522;1.348;2023-09-30T00:56:49;100756.13;;;21.54;60.50
80308;BME280;69616;43.522;1.348;2023-09-30T00:59:15;100745.41;;;21.54;60.84
80308;BME280;69616;43.522;1.348;2023-09-30T01:01:45;100748.34;;;21.47;61.04
80308;BME280;69616;43.522;1.348;2023-09-30T01:04:11;100743.00;;;21.47;61.13
80308;BME280;69616;43.522;1.348;2023-09-30T01:06:37;100743.78;;;21.49;60.97
80308;BME280;69616;43.522;1.348;2023-09-30T01:09:03;100753.56;;;21.50;60.62
80308;BME280;69616;43.522;1.348;2023-09-30T01:11:28;100747.41;;;21.48;60.88
80308;BME280;69616;43.522;1.348;2023-09-30T01:13:54;100747.72;;;21.41;61.12
80308;BME280;69616;43.522;1.348;2023-09-30T01:16:20;100740.84;;;21.35;61.02
80308;BME280;69616;43.522;1.348;2023-09-30T01:18:46;100749.09;;;21.29;61.25
80308;BME280;69616;43.522;1.348;2023-09-30T01:21:12;100754.69;;;21.24;61.32
80308;BME280;69616;43.522;1.348;2023-09-30T01:23:37;100754.84;;;21.19;61.44
80308;BME280;69616;43.522;1.348;2023-09-30T01:26:08;100748.81;;;21.14;61.67
80308;BME280;69616;43.522;1.348;2023-09-30T01:28:34;100753.59;;;21.06;61.62
80308;BME280;69616;43.522;1.348;2023-09-30T01:31:00;100757.47;;;20.99;62.11
80308;BME280;69616;43.522;1.348;2023-09-30T01:33:26;100755.88;;;20.93;62.16
80308;BME280;69616;43.522;1.348;2023-09-30T01:35:52;100747.94;;;20.91;62.15
80308;BME280;69616;43.522;1.348;2023-09-30T01:38:17;100752.47;;;20.89;62.32
80308;BME280;69616;43.522;1.348;2023-09-30T01:40:43;100755.22;;;20.88;62.16
80308;BME280;69616;43.522;1.348;2023-09-30T01:43:09;100758.81;;;20.87;62.03
80308;BME280;69616;43.522;1.348;2023-09-30T01:45:34;100745.38;;;20.88;62.41
80308;BME280;69616;43.522;1.348;2023-09-30T01:48:01;100752.34;;;20.92;62.22
80308;BME280;69616;43.522;1.348;2023-09-30T01:50:27;100752.34;;;20.92;62.00
80308;BME280;69616;43.522;1.348;2023-09-30T01:52:52;100755.16;;;20.89;62.04
80308;BME280;69616;43.522;1.348;2023-09-30T01:55:18;100760.56;;;20.88;62.16
80308;BME280;69616;43.522;1.348;2023-09-30T01:57:43;100750.84;;;20.85;61.89
80308;BME280;69616;43.522;1.348;2023-09-30T02:00:09;100748.16;;;20.85;61.96
80308;BME280;69616;43.522;1.348;2023-09-30T02:02:35;100749.09;;;20.84;62.15
80308;BME280;69616;43.522;1.348;2023-09-30T02:05:02;100752.81;;;20.80;62.39
80308;BME280;69616;43.522;1.348;2023-09-30T02:07:28;100749.44;;;20.75;62.26
80308;BME280;69616;43.522;1.348;2023-09-30T02:09:54;100751.41;;;20.70;62.15
80308;BME280;69616;43.522;1.348;2023-09-30T02:12:19;100748.88;;;20.67;62.31
80308;BME280;69616;43.522;1.348;2023-09-30T02:14:45;100754.25;;;20.65;62.35
80308;BME280;69616;43.522;1.348;2023-09-30T02:17:11;100749.78;;;20.65;62.50
80308;BME280;69616;43.522;1.348;2023-09-30T02:19:36;100755.16;;;20.65;62.36
80308;BME280;69616;43.522;1.348;2023-09-30T02:22:02;100757.88;;;20.64;62.44
80308;BME280;69616;43.522;1.348;2023-09-30T02:24:27;100757.03;;;20.63;62.41
80308;BME280;69616;43.522;1.348;2023-09-30T02:26:53;100757.03;;;20.63;62.55
80308;BME280;69616;43.522;1.348;2023-09-30T02:29:18;100758.94;;;20.60;62.18
80308;BME280;69616;43.522;1.348;2023-09-30T02:31:43;100763.47;;;20.58;62.45
80308;BME280;69616;43.522;1.348;2023-09-30T02:34:09;100762.66;;;20.56;62.51
80308;BME280;69616;43.522;1.348;2023-09-30T02:36:34;100762.69;;;20.54;62.45
80308;BME280;69616;43.522;1.348;2023-09-30T02:39:05;100766.31;;;20.53;62.35
80308;BME280;69616;43.522;1.348;2023-09-30T02:41:31;100767.34;;;20.49;62.25
80308;BME280;69616;43.522;1.348;2023-09-30T02:43:56;100765.63;;;20.48;62.28
80308;BME280;69616;43.522;1.348;2023-09-30T02:46:21;100754.97;;;20.46;62.42
80308;BME280;69616;43.522;1.348;2023-09-30T02:48:47;100747.97;;;20.42;62.43
80308;BME280;69616;43.522;1.348;2023-09-30T02:51:12;100749.84;;;20.40;62.52
80308;BME280;69616;43.522;1.348;2023-09-30T02:53:38;100748.09;;;20.39;62.37
80308;BME280;69616;43.522;1.348;2023-09-30T02:56:03;100744.63;;;20.37;62.19
80308;BME280;69616;43.522;1.348;2023-09-30T02:58:30;100756.28;;;20.34;62.29
80308;BME280;69616;43.522;1.348;2023-09-30T03:00:55;100747.44;;;20.32;62.77
80308;BME280;69616;43.522;1.348;2023-09-30T03:03:21;100750.19;;;20.31;62.57
80308;BME280;69616;43.522;1.348;2023-09-30T03:05:47;100744.91;;;20.29;62.29
80308;BME280;69616;43.522;1.348;2023-09-30T03:08:14;100747.69;;;20.26;62.82
80308;BME280;69616;43.522;1.348;2023-09-30T03:10:40;100751.41;;;20.22;62.86
80308;BME280;69616;43.522;1.348;2023-09-30T03:13:06;100749.66;;;20.21;62.57
80308;BME280;69616;43.522;1.348;2023-09-30T03:15:33;100748.78;;;20.20;62.64
80308;BME280;69616;43.522;1.348;2023-09-30T03:17:58;100750.63;;;20.18;62.76
80308;BME280;69616;43.522;1.348;2023-09-30T03:20:25;100746.28;;;20.16;63.07
80308;BME280;69616;43.522;1.348;2023-09-30T03:22:51;100740.06;;;20.15;62.84
80308;BME280;69616;43.522;1.348;2023-09-30T03:25:18;100736.59;;;20.12;62.92
80308;BME280;69616;43.522;1.348;2023-09-30T03:27:44;100739.41;;;20.08;63.37
80308;BME280;69616;43.522;1.348;2023-09-30T03:30:12;100737.78;;;20.04;63.11
80308;BME280;69616;43.522;1.348;2023-09-30T03:32:38;100737.88;;;20.01;63.38
80308;BME280;69616;43.522;1.348;2023-09-30T03:35:05;100742.34;;;20.01;63.53
80308;BME280;69616;43.522;1.348;2023-09-30T03:37:32;100733.47;;;20.00;63.31
80308;BME280;69616;43.522;1.348;2023-09-30T03:39:57;100739.75;;;19.99;63.44
80308;BME280;69616;43.522;1.348;2023-09-30T03:42:23;100743.47;;;19.95;63.43
80308;BME280;69616;43.522;1.348;2023-09-30T03:44:49;100745.31;;;19.93;63.33
80308;BME280;69616;43.522;1.348;2023-09-30T03:47:16;100740.91;;;19.92;63.53
80308;BME280;69616;43.522;1.348;2023-09-30T03:49:42;100749.84;;;19.91;63.47
80308;BME280;69616;43.522;1.348;2023-09-30T03:52:09;100749.97;;;19.86;63.40
80308;BME280;69616;43.522;1.348;2023-09-30T03:54:35;100750.06;;;19.83;63.66
80308;BME280;69616;43.522;1.348;2023-09-30T03:57:00;100743.97;;;19.79;63.83
80308;BME280;69616;43.522;1.348;2023-09-30T03:59:26;100755.53;;;19.80;63.73
80308;BME280;69616;43.522;1.348;2023-09-30T04:01:52;100748.44;;;19.79;63.68
80308;BME280;69616;43.522;1.348;2023-09-30T04:04:19;100753.00;;;19.75;63.67
80308;BME280;69616;43.522;1.348;2023-09-30T04:06:44;100744.19;;;19.73;63.49
80308;BME280;69616;43.522;1.348;2023-09-30T04:09:12;100746.88;;;19.72;63.56
80308;BME280;69616;43.522;1.348;2023-09-30T04:11:38;100754.97;;;19.70;63.50
80308;BME280;69616;43.522;1.348;2023-09-30T04:14:07;100741.06;;;19.60;63.69
80308;BME280;69616;43.522;1.348;2023-09-30T04:16:33;100744.91;;;19.51;64.08
80308;BME280;69616;43.522;1.348;2023-09-30T04:18:59;100750.56;;;19.42;64.35
80308;BME280;69616;43.522;1.348;2023-09-30T04:21:24;100753.31;;;19.39;64.49
80308;BME280;69616;43.522;1.348;2023-09-30T04:23:50;100748.91;;;19.38;64.78
80308;BME280;69616;43.522;1.348;2023-09-30T04:26:15;100742.72;;;19.38;64.97
80308;BME280;69616;43.522;1.348;2023-09-30T04:28:41;100745.41;;;19.36;65.01
80308;BME280;69616;43.522;1.348;2023-09-30T04:31:06;100751.75;;;19.33;65.05
80308;BME280;69616;43.522;1.348;2023-09-30T04:33:33;100743.78;;;19.32;65.14
80308;BME280;69616;43.522;1.348;2023-09-30T04:36:01;100750.00;;;19.32;65.38
80308;BME280;69616;43.522;1.348;2023-09-30T04:38:26;100749.13;;;19.32;65.26
80308;BME280;69616;43.522;1.348;2023-09-30T04:40:52;100746.44;;;19.32;65.30
80308;BME280;69616;43.522;1.348;2023-09-30T04:43:19;100745.53;;;19.33;65.50
80308;BME280;69616;43.522;1.348;2023-09-30T04:45:46;100741.09;;;19.32;65.55
80308;BME280;69616;43.522;1.348;2023-09-30T04:48:12;100744.84;;;19.26;66.00
80308;BME280;69616;43.522;1.348;2023-09-30T04:50:41;100739.78;;;19.18;65.98
80308;BME280;69616;43.522;1.348;2023-09-30T04:53:07;100741.81;;;19.10;66.23
80308;BME280;69616;43.522;1.348;2023-09-30T04:55:33;100748.13;;;19.07;66.46
80308;BME280;69616;43.522;1.348;2023-09-30T04:57:59;100746.41;;;19.05;66.61
80308;BME280;69616;43.522;1.348;2023-09-30T05:00:24;100750.00;;;19.04;66.45
80308;BME280;69616;43.522;1.348;2023-09-30T05:02:51;100751.84;;;19.02;66.55
80308;BME280;69616;43.522;1.348;2023-09-30T05:05:18;100752.78;;;19.01;66.52
80308;BME280;69616;43.522;1.348;2023-09-30T05:07:43;100759.03;;;19.00;66.90
80308;BME280;69616;43.522;1.348;2023-09-30T05:10:11;100759.97;;;18.99;66.64
80308;BME280;69616;43.522;1.348;2023-09-30T05:12:38;100767.91;;;19.00;66.76
80308;BME280;69616;43.522;1.348;2023-09-30T05:15:04;100760.84;;;18.98;66.79
80308;BME280;69616;43.522;1.348;2023-09-30T05:17:33;100761.03;;;18.91;67.06
80308;BME280;69616;43.522;1.348;2023-09-30T05:19:59;100766.34;;;18.91;67.02
80308;BME280;69616;43.522;1.348;2023-09-30T05:22:24;100763.69;;;18.91;66.96
80308;BME280;69616;43.522;1.348;2023-09-30T05:24:52;100773.50;;;18.91;67.23
80308;BME280;69616;43.522;1.348;2023-09-30T05:27:19;100784.06;;;18.96;66.83
80308;BME280;69616;43.522;1.348;2023-09-30T05:29:44;100780.44;;;18.98;66.72
80308;BME280;69616;43.522;1.348;2023-09-30T05:32:10;100782.16;;;18.99;66.64
80308;BME280;69616;43.522;1.348;2023-09-30T05:34:36;100781.25;;;19.00;66.74
80308;BME280;69616;43.522;1.348;2023-09-30T05:37:02;100784.81;;;19.01;66.52
80308;BME280;69616;43.522;1.348;2023-09-30T05:39:28;100786.66;;;18.97;66.85
80308;BME280;69616;43.522;1.348;2023-09-30T05:41:54;100784.06;;;18.96;66.66
80308;BME280;69616;43.522;1.348;2023-09-30T05:44:20;100785.97;;;18.90;66.70
80308;BME280;69616;43.522;1.348;2023-09-30T05:46:46;100795.06;;;18.85;66.89
80308;BME280;69616;43.522;1.348;2023-09-30T05:49:11;100791.59;;;18.81;67.08
80308;BME280;69616;43.522;1.348;2023-09-30T05:51:41;100797.97;;;18.75;66.99
80308;BME280;69616;43.522;1.348;2023-09-30T05:54:07;100797.22;;;18.72;67.18
80308;BME280;69616;43.522;1.348;2023-09-30T05:56:36;100792.03;;;18.65;67.37
80308;BME280;69616;43.522;1.348;2023-09-30T05:59:03;100797.56;;;18.59;67.85
80308;BME280;69616;43.522;1.348;2023-09-30T06:01:28;100801.16;;;18.58;68.07
80308;BME280;69616;43.522;1.348;2023-09-30T06:03:53;100796.69;;;18.59;67.71
80308;BME280;69616;43.522;1.348;2023-09-30T06:06:20;100797.53;;;18.61;67.76
80308;BME280;69616;43.522;1.348;2023-09-30T06:08:45;100802.78;;;18.62;67.76
80308;BME280;69616;43.522;1.348;2023-09-30T06:11:23;100804.63;;;18.60;68.56
80308;BME280;69616;43.522;1.348;2023-09-30T06:13:57;100808.31;;;18.56;68.61
80308;BME280;69616;43.522;1.348;2023-09-30T06:16:29;100806.47;;;18.58;68.35
80308;BME280;69616;43.522;1.348;2023-09-30T06:18:57;100811.72;;;18.61;68.33
80308;BME280;69616;43.522;1.348;2023-09-30T06:21:24;100821.44;;;18.64;68.16
80308;BME280;69616;43.522;1.348;2023-09-30T06:23:50;100815.13;;;18.67;68.50
80308;BME280;69616;43.522;1.348;2023-09-30T06:26:19;100814.38;;;18.61;68.71
80308;BME280;69616;43.522;1.348;2023-09-30T06:28:46;100815.31;;;18.60;68.86
80308;BME280;69616;43.522;1.348;2023-09-30T06:31:13;100814.38;;;18.61;68.74
80308;BME280;69616;43.522;1.348;2023-09-30T06:33:39;100816.09;;;18.64;68.61
80308;BME280;69616;43.522;1.348;2023-09-30T06:36:09;100821.34;;;18.67;68.94
80308;BME280;69616;43.522;1.348;2023-09-30T06:38:36;100827.47;;;18.71;68.80
80308;BME280;69616;43.522;1.348;2023-09-30T06:41:03;100828.31;;;18.73;68.87
80308;BME280;69616;43.522;1.348;2023-09-30T06:43:28;100814.97;;;18.73;68.85
80308;BME280;69616;43.522;1.348;2023-09-30T06:45:54;100815.91;;;18.70;69.28
80308;BME280;69616;43.522;1.348;2023-09-30T06:48:21;100821.13;;;18.75;69.23
80308;BME280;69616;43.522;1.348;2023-09-30T06:50:47;100824.63;;;18.77;69.26
80308;BME280;69616;43.522;1.348;2023-09-30T06:53:17;100821.75;;;18.83;69.59
80308;BME280;69616;43.522;1.348;2023-09-30T06:55:43;100817.91;;;18.93;69.78
80308;BME280;69616;43.522;1.348;2023-09-30T06:58:09;100824.41;;;19.15;69.20
80308;BME280;69616;43.522;1.348;2023-09-30T07:00:36;100831.75;;;19.36;68.36
80308;BME280;69616;43.522;1.348;2023-09-30T07:03:02;100826.69;;;19.56;68.04
80308;BME280;69616;43.522;1.348;2023-09-30T07:05:27;100830.50;;;19.75;67.77
80308;BME280;69616;43.522;1.348;2023-09-30T07:07:56;100838.88;;;19.93;67.40
80308;BME280;69616;43.522;1.348;2023-09-30T07:10:21;100829.44;;;20.08;66.64
80308;BME280;69616;43.522;1.348;2023-09-30T07:12:47;100830.84;;;20.18;66.43
80308;BME280;69616;43.522;1.348;2023-09-30T07:15:12;100837.75;;;20.26;66.64
80308;BME280;69616;43.522;1.348;2023-09-30T07:17:39;100830.25;;;20.35;66.15
80308;BME280;69616;43.522;1.348;2023-09-30T07:20:06;100829.00;;;20.46;66.32
80308;BME280;69616;43.522;1.348;2023-09-30T07:22:35;100840.38;;;20.53;65.86
80308;BME280;69616;43.522;1.348;2023-09-30T07:25:01;100833.88;;;20.58;65.48
80308;BME280;69616;43.522;1.348;2023-09-30T07:27:27;100830.28;;;20.59;65.73
80308;BME280;69616;43.522;1.348;2023-09-30T07:29:52;100824.94;;;20.59;65.71
80308;BME280;69616;43.522;1.348;2023-09-30T07:32:18;100829.84;;;20.72;65.47
80308;BME280;69616;43.522;1.348;2023-09-30T07:34:43;100840.00;;;20.87;65.48
80308;BME280;69616;43.522;1.348;2023-09-30T07:37:09;100840.41;;;21.00;65.01
80308;BME280;69616;43.522;1.348;2023-09-30T07:39:35;100847.28;;;21.07;64.94
80308;BME280;69616;43.522;1.348;2023-09-30T07:42:00;100845.28;;;21.13;65.04
80308;BME280;69616;43.522;1.348;2023-09-30T07:44:26;100845.78;;;21.22;64.80
80308;BME280;69616;43.522;1.348;2023-09-30T07:46:52;100856.03;;;21.35;64.39
80308;BME280;69616;43.522;1.348;2023-09-30T07:49:17;100853.66;;;21.49;64.04
80308;BME280;69616;43.522;1.348;2023-09-30T07:51:43;100850.53;;;21.60;63.78
80308;BME280;69616;43.522;1.348;2023-09-30T07:54:08;100851.88;;;21.72;63.50
80308;BME280;69616;43.522;1.348;2023-09-30T07:56:34;100852.19;;;21.87;63.16
80308;BME280;69616;43.522;1.348;2023-09-30T07:58:59;100856.97;;;22.01;63.00
80308;BME280;69616;43.522;1.348;2023-09-30T08:01:25;100851.72;;;22.18;62.62
80308;BME280;69616;43.522;1.348;2023-09-30T08:03:50;100859.19;;;22.32;62.27
80308;BME280;69616;43.522;1.348;2023-09-30T08:06:15;100862.00;;;22.50;62.28
80308;BME280;69616;43.522;1.348;2023-09-30T08:08:41;100855.66;;;22.72;61.59
80308;BME280;69616;43.522;1.348;2023-09-30T08:11:07;100854.69;;;22.93;61.21
80308;BME280;69616;43.522;1.348;2023-09-30T08:13:33;100853.75;;;23.14;60.59
80308;BME280;69616;43.522;1.348;2023-09-30T08:15:59;100843.03;;;23.33;60.43
80308;BME280;69616;43.522;1.348;2023-09-30T08:18:25;100848.84;;;23.60;59.75
80308;BME280;69616;43.522;1.348;2023-09-30T08:20:50;100853.16;;;23.82;59.52
80308;BME280;69616;43.522;1.348;2023-09-30T08:23:15;100846.00;;;24.00;59.03
80308;BME280;69616;43.522;1.348;2023-09-30T08:25:41;100845.72;;;24.24;58.31
80308;BME280;69616;43.522;1.348;2023-09-30T08:28:07;100847.66;;;24.38;58.04
80308;BME280;69616;43.522;1.348;2023-09-30T08:30:34;100849.69;;;24.50;57.53
80308;BME280;69616;43.522;1.348;2023-09-30T08:33:00;100851.19;;;24.56;56.95
80308;BME280;69616;43.522;1.348;2023-09-30T08:35:25;100851.03;;;24.59;56.93
80308;BME280;69616;43.522;1.348;2023-09-30T08:37:51;100850.97;;;24.61;56.98
80308;BME280;69616;43.522;1.348;2023-09-30T08:40:20;100852.53;;;24.65;56.71
80308;BME280;69616;43.522;1.348;2023-09-30T08:42:50;100850.28;;;24.73;56.62
80308;BME280;69616;43.522;1.348;2023-09-30T08:45:16;100847.19;;;24.81;56.71
80308;BME280;69616;43.522;1.348;2023-09-30T08:47:43;100843.75;;;24.95;56.77
80308;BME280;69616;43.522;1.348;2023-09-30T08:50:08;100847.41;;;25.10;56.33
80308;BME280;69616;43.522;1.348;2023-09-30T08:52:36;100842.19;;;25.23;56.16
80308;BME280;69616;43.522;1.348;2023-09-30T08:55:03;100839.97;;;25.47;55.56
80308;BME280;69616;43.522;1.348;2023-09-30T08:57:28;100839.81;;;25.65;55.20
80308;BME280;69616;43.522;1.348;2023-09-30T08:59:54;100832.22;;;25.88;54.98
80308;BME280;69616;43.522;1.348;2023-09-30T09:02:20;100834.38;;;26.12;53.65
80308;BME280;69616;43.522;1.348;2023-09-30T09:04:46;100829.91;;;26.27;54.00
80308;BME280;69616;43.522;1.348;2023-09-30T09:07:12;100832.72;;;26.40;53.10
80308;BME280;69616;43.522;1.348;2023-09-30T09:09:37;100835.44;;;26.54;53.08
80308;BME280;69616;43.522;1.348;2023-09-30T09:12:03;100840.94;;;26.67;52.71
80308;BME280;69616;43.522;1.348;2023-09-30T09:17:05;100830.03;;;26.83;52.28
80308;BME280;69616;43.522;1.348;2023-09-30T09:19:31;100827.06;;;27.02;51.40
80308;BME280;69616;43.522;1.348;2023-09-30T09:21:58;100835.81;;;27.20;51.41
80308;BME280;69616;43.522;1.348;2023-09-30T09:24:35;100830.56;;;27.32;50.69
80308;BME280;69616;43.522;1.348;2023-09-30T09:27:04;100830.03;;;27.54;50.24
80308;BME280;69616;43.522;1.348;2023-09-30T09:29:32;100829.00;;;27.70;49.41
80308;BME280;69616;43.522;1.348;2023-09-30T09:32:10;100833.03;;;27.77;49.59
80308;BME280;69616;43.522;1.348;2023-09-30T09:34:37;100827.97;;;27.98;48.75
80308;BME280;69616;43.522;1.348;2023-09-30T09:39:55;100818.41;;;28.20;47.48
80308;BME280;69616;43.522;1.348;2023-09-30T09:42:29;100811.34;;;28.43;47.40
80308;BME280;69616;43.522;1.348;2023-09-30T09:44:56;100813.94;;;28.58;47.33
80308;BME280;69616;43.522;1.348;2023-09-30T09:47:22;100804.06;;;28.70;47.15
80308;BME280;69616;43.522;1.348;2023-09-30T09:49:50;100806.78;;;28.83;46.74
80308;BME280;69616;43.522;1.348;2023-09-30T09:52:16;100808.06;;;28.90;46.30
80308;BME280;69616;43.522;1.348;2023-09-30T09:54:45;100806.09;;;28.92;45.47
80308;BME280;69616;43.522;1.348;2023-09-30T09:57:11;100812.72;;;28.88;45.24
80308;BME280;69616;43.522;1.348;2023-09-30T09:59:38;100812.88;;;28.86;45.52
80308;BME280;69616;43.522;1.348;2023-09-30T10:02:10;100812.19;;;28.96;45.57
80308;BME280;69616;43.522;1.348;2023-09-30T10:04:37;100811.81;;;29.13;44.89
80308;BME280;69616;43.522;1.348;2023-09-30T10:07:04;100801.44;;;29.31;44.11
80308;BME280;69616;43.522;1.348;2023-09-30T10:09:34;100799.47;;;29.33;43.78
80308;BME280;69616;43.522;1.348;2023-09-30T10:12:00;100791.84;;;29.39;44.12
80308;BME280;69616;43.522;1.348;2023-09-30T10:14:30;100793.91;;;29.48;44.04
80308;BME280;69616;43.522;1.348;2023-09-30T10:16:58;100782.72;;;29.64;43.51
80308;BME280;69616;43.522;1.348;2023-09-30T10:19:24;100785.47;;;29.75;43.49
80308;BME280;69616;43.522;1.348;2023-09-30T10:24:48;100772.38;;;30.05;42.63
80308;BME280;69616;43.522;1.348;2023-09-30T10:29:59;100765.47;;;30.12;42.79
80308;BME280;69616;43.522;1.348;2023-09-30T10:40:47;100759.94;;;30.59;41.95
80308;BME280;69616;43.522;1.348;2023-09-30T10:43:32;100757.34;;;30.58;41.57
80308;BME280;69616;43.522;1.348;2023-09-30T10:46:02;100757.84;;;30.74;41.89
80308;BME280;69616;43.522;1.348;2023-09-30T10:51:13;100755.47;;;30.92;41.50
80308;BME280;69616;43.522;1.348;2023-09-30T10:53:52;100751.22;;;31.11;41.18
80308;BME280;69616;43.522;1.348;2023-09-30T10:56:20;100742.53;;;31.17;40.71
80308;BME280;69616;43.522;1.348;2023-09-30T10:58:48;100745.91;;;31.21;40.82
80308;BME280;69616;43.522;1.348;2023-09-30T11:01:16;100741.28;;;31.33;40.82
80308;BME280;69616;43.522;1.348;2023-09-30T11:03:42;100743.94;;;31.44;40.44
80308;BME280;69616;43.522;1.348;2023-09-30T11:06:11;100731.66;;;31.50;40.38
80308;BME280;69616;43.522;1.348;2023-09-30T11:08:41;100728.03;;;31.61;38.49
80308;BME280;69616;43.522;1.348;2023-09-30T11:11:10;100735.72;;;31.56;39.20
80308;BME280;69616;43.522;1.348;2023-09-30T11:13:36;100731.63;;;31.61;39.63
80308;BME280;69616;43.522;1.348;2023-09-30T11:16:03;100732.94;;;31.67;39.46
80308;BME280;69616;43.522;1.348;2023-09-30T11:18:32;100743.53;;;31.70;39.46
80308;BME280;69616;43.522;1.348;2023-09-30T11:21:09;100735.25;;;31.72;39.61
80308;BME280;69616;43.522;1.348;2023-09-30T11:23:36;100729.09;;;31.91;38.60
80308;BME280;69616;43.522;1.348;2023-09-30T11:26:02;100726.84;;;31.96;38.89
80308;BME280;69616;43.522;1.348;2023-09-30T11:28:39;100722.75;;;32.12;38.31
80308;BME280;69616;43.522;1.348;2023-09-30T11:31:08;100726.66;;;32.19;37.91
80308;BME280;69616;43.522;1.348;2023-09-30T11:36:15;100727.69;;;32.28;37.82
80308;BME280;69616;43.522;1.348;2023-09-30T11:38:44;100718.69;;;32.27;38.04
80308;BME280;69616;43.522;1.348;2023-09-30T11:41:10;100712.41;;;32.36;38.25
80308;BME280;69616;43.522;1.348;2023-09-30T11:43:36;100715.59;;;32.42;37.26
80308;BME280;69616;43.522;1.348;2023-09-30T11:46:11;100711.56;;;32.36;37.28
80308;BME280;69616;43.522;1.348;2023-09-30T11:48:37;100710.88;;;32.44;37.38
80308;BME280;69616;43.522;1.348;2023-09-30T11:51:04;100704.00;;;32.49;37.06
80308;BME280;69616;43.522;1.348;2023-09-30T11:53:30;100705.03;;;32.58;37.49
80308;BME280;69616;43.522;1.348;2023-09-30T11:56:00;100700.44;;;32.49;36.89
80308;BME280;69616;43.522;1.348;2023-09-30T11:58:28;100700.84;;;32.44;36.99
80308;BME280;69616;43.522;1.348;2023-09-30T12:00:54;100696.53;;;32.52;36.74
80308;BME280;69616;43.522;1.348;2023-09-30T12:03:22;100695.84;;;32.59;36.68
80308;BME280;69616;43.522;1.348;2023-09-30T12:05:48;100698.44;;;32.61;36.27
80308;BME280;69616;43.522;1.348;2023-09-30T12:08:14;100688.56;;;32.70;36.42
80308;BME280;69616;43.522;1.348;2023-09-30T12:10:40;100688.84;;;32.76;36.34
80308;BME280;69616;43.522;1.348;2023-09-30T12:13:05;100690.56;;;32.87;36.14
80308;BME280;69616;43.522;1.348;2023-09-30T12:15:31;100689.06;;;32.95;35.97
80308;BME280;69616;43.522;1.348;2023-09-30T12:17:56;100681.31;;;33.00;36.11
80308;BME280;69616;43.522;1.348;2023-09-30T12:20:22;100684.47;;;33.05;35.48
80308;BME280;69616;43.522;1.348;2023-09-30T12:22:48;100677.00;;;33.17;35.72
80308;BME280;69616;43.522;1.348;2023-09-30T12:25:14;100665.78;;;33.30;35.80
80308;BME280;69616;43.522;1.348;2023-09-30T12:27:40;100660.31;;;33.30;35.38
80308;BME280;69616;43.522;1.348;2023-09-30T12:30:06;100656.59;;;33.31;35.49
80308;BME280;69616;43.522;1.348;2023-09-30T12:32:32;100657.16;;;33.34;35.07
80308;BME280;69616;43.522;1.348;2023-09-30T12:34:57;100662.16;;;33.39;35.28
80308;BME280;69616;43.522;1.348;2023-09-30T12:37:22;100648.81;;;33.46;34.97
80308;BME280;69616;43.522;1.348;2023-09-30T12:39:48;100653.41;;;33.55;34.80
80308;BME280;69616;43.522;1.348;2023-09-30T12:42:13;100649.38;;;33.59;34.53
80308;BME280;69616;43.522;1.348;2023-09-30T12:44:39;100650.94;;;33.62;33.98
80308;BME280;69616;43.522;1.348;2023-09-30T12:47:05;100654.84;;;33.59;34.08
80308;BME280;69616;43.522;1.348;2023-09-30T12:49:31;100642.50;;;33.55;33.91
80308;BME280;69616;43.522;1.348;2023-09-30T12:51:57;100648.81;;;33.56;34.28
80308;BME280;69616;43.522;1.348;2023-09-30T12:54:24;100642.59;;;33.63;34.00
80308;BME280;69616;43.522;1.348;2023-09-30T12:56:49;100647.88;;;33.75;34.27
80308;BME280;69616;43.522;1.348;2023-09-30T12:59:16;100642.66;;;33.91;33.83
80308;BME280;69616;43.522;1.348;2023-09-30T13:01:43;100643.84;;;33.89;33.66
80308;BME280;69616;43.522;1.348;2023-09-30T13:04:09;100647.13;;;33.83;33.69
80308;BME280;69616;43.522;1.348;2023-09-30T13:06:35;100630.47;;;33.76;33.55
80308;BME280;69616;43.522;1.348;2023-09-30T13:09:01;100635.22;;;33.74;33.92
80308;BME280;69616;43.522;1.348;2023-09-30T13:11:29;100627.91;;;33.74;33.67